Accueil
METAR-TAF:

METAR-TAF

Aéroports :

Shawbury, Angleterre

latitude: 52-48N, longitude: 002-40W, altitude: 76 m

Observation

Le bulletin a été fait il y a 1 heure et 2 minutes, à 21:50 UTC
Vent 5 kt de sud/sud-ouest
Température 17°C
Humidité 88%
Pression 1023 hPa
Visibilité 10 km ou plus

METAR: EGOS 222150Z AUTO 20005KT 9999 BKN015/// 17/15 Q1023

Heure: 23:52 (22:52 UTC)

Prévision

Le bulletin a été fait il y a 9 heures et 13 minutes, à 13:39 UTC
Prévision valable du 22 à 15 UTC au 22 à 18 UTC
Vent 12 kt de sud-ouest avec des rafales jusqu'à 22 kt
Visibilité 10 km ou plus
Nuages épars à une hauteur de 2500 ft
Evoluant progressivement
du 22 à 16 UTC au 22 à 18 UTC
Vent 10 kt de sud-ouest

TAF: EGOS 221339Z 2215/2218 22012G22KT 9999 SCT025 BECMG 2216/2218 22010KT

Observations et prévisions météorologiques de plus de 4000 aéroports (messages METAR et TAF).

Les stations disponibles sont représentées par des disques jaunes et rouges sur la carte.

Passer la souris dessus pour voir le nom de la station.

Cliquer dessus pour voir les observations et prévisions météorologiques.

Pour changer de carte: cliquez sur les boutons verts avec une croix noire pour zoomer, sur le bouton vert avec un tiret pour effectuer un zoom arrière, ou sur les flèches vertes pour les cartes adjacentes.


METAR-TAF: